sensor_id;sensor_type;location;lat;lon;timestamp;pressure;altitude;pressure_sealevel;temperature;humidity
58622;BME280;44389;51.578;5.456;2023-06-22T00:02:21;101729.94;;;16.58;100.00
58622;BME280;44389;51.578;5.456;2023-06-22T00:04:47;101727.97;;;16.46;100.00
58622;BME280;44389;51.578;5.456;2023-06-22T00:07:12;101728.50;;;16.28;100.00
58622;BME280;44389;51.578;5.456;2023-06-22T00:09:37;101721.41;;;16.21;100.00
58622;BME280;44389;51.578;5.456;2023-06-22T00:12:03;101718.50;;;16.07;100.00
58622;BME280;44389;51.578;5.456;2023-06-22T00:14:28;101724.66;;;16.11;100.00
58622;BME280;44389;51.578;5.456;2023-06-22T00:16:54;101730.91;;;16.19;100.00
58622;BME280;44389;51.578;5.456;2023-06-22T00:19:24;101728.34;;;16.21;100.00
58622;BME280;44389;51.578;5.456;2023-06-22T00:21:52;101728.22;;;16.16;100.00
58622;BME280;44389;51.578;5.456;2023-06-22T00:24:21;101724.75;;;16.16;100.00
58622;BME280;44389;51.578;5.456;2023-06-22T00:26:48;101735.09;;;16.12;100.00
58622;BME280;44389;51.578;5.456;2023-06-22T00:29:14;101739.41;;;16.10;100.00
58622;BME280;44389;51.578;5.456;2023-06-22T00:31:39;101733.03;;;15.96;100.00
58622;BME280;44389;51.578;5.456;2023-06-22T00:34:05;101725.00;;;15.87;100.00
58622;BME280;44389;51.578;5.456;2023-06-22T00:36:31;101724.19;;;15.89;100.00
58622;BME280;44389;51.578;5.456;2023-06-22T00:38:57;101730.19;;;15.87;100.00
58622;BME280;44389;51.578;5.456;2023-06-22T00:41:22;101727.53;;;15.84;100.00
58622;BME280;44389;51.578;5.456;2023-06-22T00:43:47;101731.03;;;15.84;100.00
58622;BME280;44389;51.578;5.456;2023-06-22T00:46:13;101720.44;;;15.76;100.00
58622;BME280;44389;51.578;5.456;2023-06-22T00:48:38;101719.22;;;15.62;100.00
58622;BME280;44389;51.578;5.456;2023-06-22T00:51:05;101716.75;;;15.67;100.00
58622;BME280;44389;51.578;5.456;2023-06-22T00:53:30;101719.19;;;15.59;100.00
58622;BME280;44389;51.578;5.456;2023-06-22T00:55:59;101713.81;;;15.53;100.00
58622;BME280;44389;51.578;5.456;2023-06-22T00:58:25;101722.34;;;15.45;100.00
58622;BME280;44389;51.578;5.456;2023-06-22T01:00:51;101733.72;;;15.51;100.00
58622;BME280;44389;51.578;5.456;2023-06-22T01:03:16;101724.16;;;15.50;100.00
58622;BME280;44389;51.578;5.456;2023-06-22T01:05:42;101716.19;;;15.42;100.00
58622;BME280;44389;51.578;5.456;2023-06-22T01:11:15;101706.66;;;15.42;100.00
58622;BME280;44389;51.578;5.456;2023-06-22T01:14:00;101713.78;;;15.50;100.00
58622;BME280;44389;51.578;5.456;2023-06-22T01:16:33;101711.72;;;15.36;100.00
58622;BME280;44389;51.578;5.456;2023-06-22T01:19:01;101708.44;;;15.43;100.00
58622;BME280;44389;51.578;5.456;2023-06-22T01:21:33;101710.19;;;15.44;100.00
58622;BME280;44389;51.578;5.456;2023-06-22T01:24:18;101707.78;;;15.52;100.00
58622;BME280;44389;51.578;5.456;2023-06-22T01:29:26;101716.59;;;15.60;100.00
58622;BME280;44389;51.578;5.456;2023-06-22T01:31:53;101720.94;;;15.60;100.00
58622;BME280;44389;51.578;5.456;2023-06-22T01:34:19;101709.63;;;15.58;100.00
58622;BME280;44389;51.578;5.456;2023-06-22T01:36:46;101712.16;;;15.55;100.00
58622;BME280;44389;51.578;5.456;2023-06-22T01:39:12;101713.00;;;15.54;100.00
58622;BME280;44389;51.578;5.456;2023-06-22T01:41:39;101716.59;;;15.60;100.00
58622;BME280;44389;51.578;5.456;2023-06-22T01:44:06;101715.78;;;15.63;100.00
58622;BME280;44389;51.578;5.456;2023-06-22T01:46:35;101709.88;;;15.69;100.00
58622;BME280;44389;51.578;5.456;2023-06-22T01:49:02;101709.78;;;15.66;100.00
58622;BME280;44389;51.578;5.456;2023-06-22T01:51:28;101704.41;;;15.58;100.00
58622;BME280;44389;51.578;5.456;2023-06-22T01:53:53;101699.00;;;15.47;100.00
58622;BME280;44389;51.578;5.456;2023-06-22T01:56:18;101706.50;;;15.36;100.00
58622;BME280;44389;51.578;5.456;2023-06-22T02:01:31;101704.84;;;15.38;100.00
58622;BME280;44389;51.578;5.456;2023-06-22T02:04:13;101701.66;;;15.50;100.00
58622;BME280;44389;51.578;5.456;2023-06-22T02:06:42;101698.34;;;15.56;100.00
58622;BME280;44389;51.578;5.456;2023-06-22T02:09:16;101699.25;;;15.59;100.00
58622;BME280;44389;51.578;5.456;2023-06-22T02:11:44;101702.81;;;15.63;100.00
58622;BME280;44389;51.578;5.456;2023-06-22T02:14:11;101705.19;;;15.54;100.00
58622;BME280;44389;51.578;5.456;2023-06-22T02:16:38;101699.84;;;15.47;100.00
58622;BME280;44389;51.578;5.456;2023-06-22T02:19:04;101691.16;;;15.45;100.00
58622;BME280;44389;51.578;5.456;2023-06-22T02:21:31;101689.25;;;15.38;100.00
58622;BME280;44389;51.578;5.456;2023-06-22T02:23:56;101697.22;;;15.46;100.00
58622;BME280;44389;51.578;5.456;2023-06-22T02:26:24;101697.34;;;15.51;100.00
58622;BME280;44389;51.578;5.456;2023-06-22T02:28:50;101699.13;;;15.53;100.00
58622;BME280;44389;51.578;5.456;2023-06-22T02:31:15;101694.63;;;15.46;100.00
58622;BME280;44389;51.578;5.456;2023-06-22T02:33:41;101691.03;;;15.39;100.00
58622;BME280;44389;51.578;5.456;2023-06-22T02:36:06;101688.28;;;15.33;100.00
58622;BME280;44389;51.578;5.456;2023-06-22T02:38:34;101676.94;;;15.29;100.00
58622;BME280;44389;51.578;5.456;2023-06-22T02:41:00;101681.09;;;15.23;100.00
58622;BME280;44389;51.578;5.456;2023-06-22T02:43:25;101677.59;;;15.21;100.00
58622;BME280;44389;51.578;5.456;2023-06-22T02:45:51;101683.72;;;15.24;100.00
58622;BME280;44389;51.578;5.456;2023-06-22T02:48:16;101681.91;;;15.20;100.00
58622;BME280;44389;51.578;5.456;2023-06-22T02:50:41;101673.97;;;15.14;100.00
58622;BME280;44389;51.578;5.456;2023-06-22T02:53:07;101674.78;;;15.11;100.00
58622;BME280;44389;51.578;5.456;2023-06-22T02:55:32;101677.31;;;15.08;100.00
58622;BME280;44389;51.578;5.456;2023-06-22T02:57:57;101674.75;;;15.10;100.00
58622;BME280;44389;51.578;5.456;2023-06-22T03:00:24;101671.38;;;15.14;100.00
58622;BME280;44389;51.578;5.456;2023-06-22T03:02:55;101666.22;;;15.15;100.00
58622;BME280;44389;51.578;5.456;2023-06-22T03:05:21;101664.41;;;15.13;100.00
58622;BME280;44389;51.578;5.456;2023-06-22T03:07:46;101667.75;;;15.07;100.00
58622;BME280;44389;51.578;5.456;2023-06-22T03:10:13;101661.53;;;15.01;100.00
58622;BME280;44389;51.578;5.456;2023-06-22T03:12:39;101645.00;;;14.97;100.00
58622;BME280;44389;51.578;5.456;2023-06-22T03:15:06;101649.19;;;14.90;100.00
58622;BME280;44389;51.578;5.456;2023-06-22T03:17:31;101647.59;;;14.97;100.00
58622;BME280;44389;51.578;5.456;2023-06-22T03:19:57;101647.53;;;14.94;100.00
58622;BME280;44389;51.578;5.456;2023-06-22T03:22:22;101655.41;;;14.97;100.00
58622;BME280;44389;51.578;5.456;2023-06-22T03:24:47;101647.53;;;14.94;100.00
58622;BME280;44389;51.578;5.456;2023-06-22T03:27:13;101640.59;;;14.93;100.00
58622;BME280;44389;51.578;5.456;2023-06-22T03:29:38;101648.28;;;14.90;100.00
58622;BME280;44389;51.578;5.456;2023-06-22T03:32:04;101635.41;;;14.93;100.00
58622;BME280;44389;51.578;5.456;2023-06-22T03:34:31;101638.75;;;14.89;100.00
58622;BME280;44389;51.578;5.456;2023-06-22T03:36:59;101641.41;;;14.90;100.00
58622;BME280;44389;51.578;5.456;2023-06-22T03:39:25;101645.00;;;14.97;100.00
58622;BME280;44389;51.578;5.456;2023-06-22T03:41:50;101639.03;;;15.01;100.00
58622;BME280;44389;51.578;5.456;2023-06-22T03:44:15;101635.69;;;15.05;100.00
58622;BME280;44389;51.578;5.456;2023-06-22T03:46:41;101637.38;;;15.03;100.00
58622;BME280;44389;51.578;5.456;2023-06-22T03:49:06;101642.63;;;15.06;100.00
58622;BME280;44389;51.578;5.456;2023-06-22T03:51:32;101647.00;;;15.07;100.00
58622;BME280;44389;51.578;5.456;2023-06-22T03:53:57;101632.34;;;15.09;100.00
58622;BME280;44389;51.578;5.456;2023-06-22T03:56:23;101637.59;;;15.12;100.00
58622;BME280;44389;51.578;5.456;2023-06-22T03:58:48;101635.06;;;15.15;100.00
58622;BME280;44389;51.578;5.456;2023-06-22T04:01:13;101624.75;;;15.19;100.00
58622;BME280;44389;51.578;5.456;2023-06-22T04:03:39;101626.63;;;15.26;100.00
58622;BME280;44389;51.578;5.456;2023-06-22T04:06:04;101626.72;;;15.29;100.00
58622;BME280;44389;51.578;5.456;2023-06-22T04:08:30;101632.94;;;15.36;100.00
58622;BME280;44389;51.578;5.456;2023-06-22T04:10:55;101627.84;;;15.40;100.00
58622;BME280;44389;51.578;5.456;2023-06-22T04:13:21;101621.88;;;15.44;100.00
58622;BME280;44389;51.578;5.456;2023-06-22T04:15:46;101624.53;;;15.49;100.00
58622;BME280;44389;51.578;5.456;2023-06-22T04:18:12;101620.31;;;15.53;100.00
58622;BME280;44389;51.578;5.456;2023-06-22T04:20:38;101629.06;;;15.58;100.00
58622;BME280;44389;51.578;5.456;2023-06-22T04:23:04;101625.69;;;15.62;100.00
58622;BME280;44389;51.578;5.456;2023-06-22T04:25:29;101619.69;;;15.64;100.00
58622;BME280;44389;51.578;5.456;2023-06-22T04:27:54;101632.78;;;15.69;100.00
58622;BME280;44389;51.578;5.456;2023-06-22T04:30:20;101626.75;;;15.70;100.00
58622;BME280;44389;51.578;5.456;2023-06-22T04:32:45;101632.00;;;15.73;100.00
58622;BME280;44389;51.578;5.456;2023-06-22T04:35:11;101626.00;;;15.77;100.00
58622;BME280;44389;51.578;5.456;2023-06-22T04:37:37;101636.53;;;15.82;100.00
58622;BME280;44389;51.578;5.456;2023-06-22T04:40:03;101626.22;;;15.87;100.00
58622;BME280;44389;51.578;5.456;2023-06-22T04:42:30;101635.91;;;15.94;100.00
58622;BME280;44389;51.578;5.456;2023-06-22T04:44:57;101639.50;;;16.01;100.00
58622;BME280;44389;51.578;5.456;2023-06-22T04:47:22;101637.06;;;16.08;100.00
58622;BME280;44389;51.578;5.456;2023-06-22T04:49:47;101638.09;;;16.17;100.00
58622;BME280;44389;51.578;5.456;2023-06-22T04:52:13;101642.56;;;16.25;100.00
58622;BME280;44389;51.578;5.456;2023-06-22T04:54:39;101634.06;;;16.34;100.00
58622;BME280;44389;51.578;5.456;2023-06-22T04:57:13;101639.50;;;16.46;100.00
58622;BME280;44389;51.578;5.456;2023-06-22T04:59:39;101635.31;;;16.56;100.00
58622;BME280;44389;51.578;5.456;2023-06-22T05:02:07;101637.25;;;16.67;100.00
58622;BME280;44389;51.578;5.456;2023-06-22T05:04:32;101641.75;;;16.77;100.00
58622;BME280;44389;51.578;5.456;2023-06-22T05:06:59;101640.22;;;16.90;100.00
58622;BME280;44389;51.578;5.456;2023-06-22T05:09:28;101626.53;;;17.00;100.00
58622;BME280;44389;51.578;5.456;2023-06-22T05:11:54;101627.56;;;17.11;100.00
58622;BME280;44389;51.578;5.456;2023-06-22T05:14:19;101632.97;;;17.24;100.00
58622;BME280;44389;51.578;5.456;2023-06-22T05:16:45;101627.06;;;17.34;100.00
58622;BME280;44389;51.578;5.456;2023-06-22T05:19:11;101630.63;;;17.42;100.00
58622;BME280;44389;51.578;5.456;2023-06-22T05:21:36;101633.31;;;17.47;100.00
58622;BME280;44389;51.578;5.456;2023-06-22T05:24:02;101630.72;;;17.49;100.00
58622;BME280;44389;51.578;5.456;2023-06-22T05:26:29;101633.31;;;17.49;100.00
58622;BME280;44389;51.578;5.456;2023-06-22T05:28:55;101637.69;;;17.50;100.00
58622;BME280;44389;51.578;5.456;2023-06-22T05:31:21;101636.88;;;17.54;100.00
58622;BME280;44389;51.578;5.456;2023-06-22T05:33:48;101642.16;;;17.58;100.00
58622;BME280;44389;51.578;5.456;2023-06-22T05:36:14;101632.63;;;17.64;100.00
58622;BME280;44389;51.578;5.456;2023-06-22T05:38:41;101631.78;;;17.66;100.00
58622;BME280;44389;51.578;5.456;2023-06-22T05:41:09;101630.06;;;17.65;100.00
58622;BME280;44389;51.578;5.456;2023-06-22T05:43:34;101620.50;;;17.64;100.00
58622;BME280;44389;51.578;5.456;2023-06-22T05:46:01;101617.88;;;17.64;100.00
58622;BME280;44389;51.578;5.456;2023-06-22T05:48:27;101617.88;;;17.64;100.00
58622;BME280;44389;51.578;5.456;2023-06-22T05:50:53;101619.66;;;17.68;100.00
58622;BME280;44389;51.578;5.456;2023-06-22T05:53:18;101623.19;;;17.72;100.00
58622;BME280;44389;51.578;5.456;2023-06-22T05:55:44;101624.13;;;17.77;100.00
58622;BME280;44389;51.578;5.456;2023-06-22T05:58:09;101626.81;;;17.83;100.00
58622;BME280;44389;51.578;5.456;2023-06-22T06:00:35;101631.25;;;17.92;100.00
58622;BME280;44389;51.578;5.456;2023-06-22T06:03:01;101627.06;;;18.05;100.00
58622;BME280;44389;51.578;5.456;2023-06-22T06:05:33;101631.53;;;18.15;100.00
58622;BME280;44389;51.578;5.456;2023-06-22T06:08:03;101631.66;;;18.26;100.00
58622;BME280;44389;51.578;5.456;2023-06-22T06:10:30;101631.84;;;18.45;100.00
58622;BME280;44389;51.578;5.456;2023-06-22T06:12:56;101625.06;;;18.65;100.00
58622;BME280;44389;51.578;5.456;2023-06-22T06:15:21;101623.50;;;18.86;100.00
58622;BME280;44389;51.578;5.456;2023-06-22T06:17:51;101619.31;;;19.05;100.00
58622;BME280;44389;51.578;5.456;2023-06-22T06:20:20;101618.50;;;19.17;100.00
58622;BME280;44389;51.578;5.456;2023-06-22T06:22:46;101609.91;;;19.30;100.00
58622;BME280;44389;51.578;5.456;2023-06-22T06:25:12;101615.19;;;19.42;100.00
58622;BME280;44389;51.578;5.456;2023-06-22T06:27:44;101623.94;;;19.57;100.00
58622;BME280;44389;51.578;5.456;2023-06-22T06:30:11;101624.91;;;19.74;100.00
58622;BME280;44389;51.578;5.456;2023-06-22T06:32:37;101625.88;;;19.89;100.00
58622;BME280;44389;51.578;5.456;2023-06-22T06:35:03;101623.28;;;20.04;100.00
58622;BME280;44389;51.578;5.456;2023-06-22T06:37:29;101631.19;;;20.17;100.00
58622;BME280;44389;51.578;5.456;2023-06-22T06:39:54;101622.47;;;20.26;100.00
58622;BME280;44389;51.578;5.456;2023-06-22T06:42:19;101621.63;;;20.39;100.00
58622;BME280;44389;51.578;5.456;2023-06-22T06:44:45;101619.00;;;20.44;100.00
58622;BME280;44389;51.578;5.456;2023-06-22T06:47:10;101617.25;;;20.55;100.00
58622;BME280;44389;51.578;5.456;2023-06-22T06:49:35;101615.50;;;20.60;100.00
58622;BME280;44389;51.578;5.456;2023-06-22T06:52:01;101623.41;;;20.74;100.00
58622;BME280;44389;51.578;5.456;2023-06-22T06:54:26;101615.56;;;20.86;99.84
58622;BME280;44389;51.578;5.456;2023-06-22T06:56:52;101620.75;;;21.00;98.97
58622;BME280;44389;51.578;5.456;2023-06-22T06:59:18;101619.88;;;21.12;98.09
58622;BME280;44389;51.578;5.456;2023-06-22T07:01:43;101624.22;;;21.27;97.68
58622;BME280;44389;51.578;5.456;2023-06-22T07:04:09;101625.03;;;21.42;98.43
58622;BME280;44389;51.578;5.456;2023-06-22T07:06:34;101615.41;;;21.59;97.09
58622;BME280;44389;51.578;5.456;2023-06-22T07:09:00;101613.56;;;21.75;95.82
58622;BME280;44389;51.578;5.456;2023-06-22T07:11:26;101611.78;;;21.86;94.69
58622;BME280;44389;51.578;5.456;2023-06-22T07:13:52;101618.69;;;21.98;93.59
58622;BME280;44389;51.578;5.456;2023-06-22T07:16:17;101623.84;;;22.20;92.80
58622;BME280;44389;51.578;5.456;2023-06-22T07:18:43;101615.16;;;22.12;91.41
58622;BME280;44389;51.578;5.456;2023-06-22T07:21:08;101606.31;;;22.20;90.26
58622;BME280;44389;51.578;5.456;2023-06-22T07:23:34;101610.59;;;22.35;90.36
58622;BME280;44389;51.578;5.456;2023-06-22T07:25:59;101608.88;;;22.28;88.60
58622;BME280;44389;51.578;5.456;2023-06-22T07:28:28;101608.81;;;22.44;86.89
58622;BME280;44389;51.578;5.456;2023-06-22T07:30:56;101607.09;;;22.43;88.75
58622;BME280;44389;51.578;5.456;2023-06-22T07:33:22;101602.72;;;22.39;87.29
58622;BME280;44389;51.578;5.456;2023-06-22T07:35:47;101599.31;;;22.21;88.78
58622;BME280;44389;51.578;5.456;2023-06-22T07:38:13;101604.53;;;22.29;87.68
58622;BME280;44389;51.578;5.456;2023-06-22T07:40:39;101605.41;;;22.23;85.93
58622;BME280;44389;51.578;5.456;2023-06-22T07:43:06;101610.72;;;22.14;88.29
58622;BME280;44389;51.578;5.456;2023-06-22T07:45:32;101601.22;;;22.00;89.43
58622;BME280;44389;51.578;5.456;2023-06-22T07:48:00;101580.31;;;21.79;93.08
58622;BME280;44389;51.578;5.456;2023-06-22T07:50:25;101583.03;;;21.59;94.03
58622;BME280;44389;51.578;5.456;2023-06-22T07:52:50;101576.09;;;21.44;96.12
58622;BME280;44389;51.578;5.456;2023-06-22T07:55:18;101569.16;;;21.32;98.07
58622;BME280;44389;51.578;5.456;2023-06-22T07:57:43;101559.59;;;21.15;98.81
58622;BME280;44389;51.578;5.456;2023-06-22T08:00:09;101564.88;;;21.04;98.77
58622;BME280;44389;51.578;5.456;2023-06-22T08:02:44;101559.63;;;21.01;100.00
58622;BME280;44389;51.578;5.456;2023-06-22T08:05:09;101553.47;;;21.05;100.00
58622;BME280;44389;51.578;5.456;2023-06-22T08:07:36;101547.34;;;21.19;100.00
58622;BME280;44389;51.578;5.456;2023-06-22T08:10:05;101542.91;;;21.35;100.00
58622;BME280;44389;51.578;5.456;2023-06-22T08:12:30;101531.53;;;21.37;100.00
58622;BME280;44389;51.578;5.456;2023-06-22T08:14:56;101531.47;;;21.53;100.00
58622;BME280;44389;51.578;5.456;2023-06-22T08:17:23;101522.72;;;21.60;99.78
58622;BME280;44389;51.578;5.456;2023-06-22T08:19:48;101520.97;;;21.51;91.83
58622;BME280;44389;51.578;5.456;2023-06-22T08:22:13;101513.97;;;21.52;92.65
58622;BME280;44389;51.578;5.456;2023-06-22T08:24:38;101517.44;;;21.63;94.28
58622;BME280;44389;51.578;5.456;2023-06-22T08:27:07;101510.34;;;21.81;89.70
58622;BME280;44389;51.578;5.456;2023-06-22T08:29:33;101513.78;;;21.94;90.93
58622;BME280;44389;51.578;5.456;2023-06-22T08:31:59;101512.75;;;22.12;90.18
58622;BME280;44389;51.578;5.456;2023-06-22T08:34:24;101520.56;;;22.21;86.60
58622;BME280;44389;51.578;5.456;2023-06-22T08:36:51;101520.47;;;22.36;84.94
58622;BME280;44389;51.578;5.456;2023-06-22T08:39:18;101524.78;;;22.42;81.94
58622;BME280;44389;51.578;5.456;2023-06-22T08:41:45;101523.78;;;22.54;82.73
58622;BME280;44389;51.578;5.456;2023-06-22T08:44:10;101515.91;;;22.57;78.46
58622;BME280;44389;51.578;5.456;2023-06-22T08:46:35;101522.91;;;22.55;75.77
58622;BME280;44389;51.578;5.456;2023-06-22T08:49:01;101522.03;;;22.56;75.25
58622;BME280;44389;51.578;5.456;2023-06-22T08:51:27;101517.69;;;22.53;78.38
58622;BME280;44389;51.578;5.456;2023-06-22T08:53:52;101513.31;;;22.51;75.75
58622;BME280;44389;51.578;5.456;2023-06-22T08:56:18;101516.81;;;22.50;76.14
58622;BME280;44389;51.578;5.456;2023-06-22T08:58:44;101522.97;;;22.47;74.25
58622;BME280;44389;51.578;5.456;2023-06-22T09:01:09;101516.88;;;22.44;74.29
58622;BME280;44389;51.578;5.456;2023-06-22T09:03:34;101509.03;;;22.41;74.25
58622;BME280;44389;51.578;5.456;2023-06-22T09:06:01;101499.41;;;22.43;76.28
58622;BME280;44389;51.578;5.456;2023-06-22T09:08:27;101506.38;;;22.44;73.99
58622;BME280;44389;51.578;5.456;2023-06-22T09:10:52;101505.47;;;22.48;75.65
58622;BME280;44389;51.578;5.456;2023-06-22T09:13:17;101500.19;;;22.51;75.88
58622;BME280;44389;51.578;5.456;2023-06-22T09:15:43;101501.00;;;22.56;76.26
58622;BME280;44389;51.578;5.456;2023-06-22T09:18:10;101502.69;;;22.65;78.22
58622;BME280;44389;51.578;5.456;2023-06-22T09:20:36;101497.44;;;22.63;76.33
58622;BME280;44389;51.578;5.456;2023-06-22T09:23:01;101492.16;;;22.66;76.34
58622;BME280;44389;51.578;5.456;2023-06-22T09:25:26;101487.75;;;22.68;75.65
58622;BME280;44389;51.578;5.456;2023-06-22T09:27:52;101497.44;;;22.63;74.29
58622;BME280;44389;51.578;5.456;2023-06-22T09:30:17;101487.81;;;22.64;75.65
58622;BME280;44389;51.578;5.456;2023-06-22T09:32:42;101498.34;;;22.59;74.58
58622;BME280;44389;51.578;5.456;2023-06-22T09:35:09;101493.09;;;22.61;74.37
58622;BME280;44389;51.578;5.456;2023-06-22T09:37:35;101489.59;;;22.59;76.20
58622;BME280;44389;51.578;5.456;2023-06-22T09:40:01;101489.66;;;22.56;75.75
58622;BME280;44389;51.578;5.456;2023-06-22T09:42:26;101490.50;;;22.56;75.38
58622;BME280;44389;51.578;5.456;2023-06-22T09:44:51;101499.31;;;22.49;74.20
58622;BME280;44389;51.578;5.456;2023-06-22T09:47:17;101501.09;;;22.48;75.45
58622;BME280;44389;51.578;5.456;2023-06-22T09:49:42;101494.09;;;22.46;75.52
58622;BME280;44389;51.578;5.456;2023-06-22T09:52:07;101489.78;;;22.42;75.53
58622;BME280;44389;51.578;5.456;2023-06-22T09:54:33;101483.69;;;22.38;76.71
58622;BME280;44389;51.578;5.456;2023-06-22T09:56:58;101480.22;;;22.31;76.83
58622;BME280;44389;51.578;5.456;2023-06-22T09:59:23;101483.75;;;22.24;76.37
58622;BME280;44389;51.578;5.456;2023-06-22T10:01:48;101478.56;;;22.18;76.89
58622;BME280;44389;51.578;5.456;2023-06-22T10:04:14;101472.50;;;22.11;76.74
58622;BME280;44389;51.578;5.456;2023-06-22T10:06:39;101472.56;;;22.07;76.75
58622;BME280;44389;51.578;5.456;2023-06-22T10:09:06;101472.56;;;22.03;77.61
58622;BME280;44389;51.578;5.456;2023-06-22T10:11:32;101473.44;;;22.02;78.72
58622;BME280;44389;51.578;5.456;2023-06-22T10:14:00;101469.06;;;22.03;77.70
58622;BME280;44389;51.578;5.456;2023-06-22T10:16:30;101476.97;;;22.01;78.87
58622;BME280;44389;51.578;5.456;2023-06-22T10:18:56;101476.06;;;22.01;79.61
58622;BME280;44389;51.578;5.456;2023-06-22T10:21:21;101473.44;;;22.02;79.01
58622;BME280;44389;51.578;5.456;2023-06-22T10:23:46;101473.44;;;22.02;78.73
58622;BME280;44389;51.578;5.456;2023-06-22T10:26:12;101473.44;;;22.06;78.68
58622;BME280;44389;51.578;5.456;2023-06-22T10:28:37;101478.69;;;22.06;80.84
58622;BME280;44389;51.578;5.456;2023-06-22T10:31:02;101476.91;;;22.08;79.18
58622;BME280;44389;51.578;5.456;2023-06-22T10:33:27;101469.00;;;22.11;80.19
58622;BME280;44389;51.578;5.456;2023-06-22T10:35:53;101471.59;;;22.17;79.78
58622;BME280;44389;51.578;5.456;2023-06-22T10:38:18;101468.00;;;22.24;80.18
58622;BME280;44389;51.578;5.456;2023-06-22T10:40:43;101473.25;;;22.24;80.24
58622;BME280;44389;51.578;5.456;2023-06-22T10:43:09;101469.72;;;22.28;78.86
58622;BME280;44389;51.578;5.456;2023-06-22T10:45:34;101483.72;;;22.30;79.97
58622;BME280;44389;51.578;5.456;2023-06-22T10:47:59;101485.41;;;22.34;81.14
58622;BME280;44389;51.578;5.456;2023-06-22T10:50:25;101498.56;;;22.34;81.47
58622;BME280;44389;51.578;5.456;2023-06-22T10:52:50;101497.75;;;22.28;80.73
58622;BME280;44389;51.578;5.456;2023-06-22T10:55:15;101506.53;;;22.20;82.77
58622;BME280;44389;51.578;5.456;2023-06-22T10:57:41;101500.53;;;22.06;83.62
58622;BME280;44389;51.578;5.456;2023-06-22T11:00:12;101512.03;;;21.91;86.63
58622;BME280;44389;51.578;5.456;2023-06-22T11:02:38;101510.38;;;21.75;83.12
58622;BME280;44389;51.578;5.456;2023-06-22T11:05:04;101510.50;;;21.54;89.95
58622;BME280;44389;51.578;5.456;2023-06-22T11:07:29;101508.84;;;21.32;89.52
58622;BME280;44389;51.578;5.456;2023-06-22T11:09:55;101513.28;;;21.13;97.18
58622;BME280;44389;51.578;5.456;2023-06-22T11:12:20;101505.50;;;20.94;100.00
58622;BME280;44389;51.578;5.456;2023-06-22T11:14:45;101501.13;;;20.82;100.00
58622;BME280;44389;51.578;5.456;2023-06-22T11:17:11;101507.25;;;20.67;100.00
58622;BME280;44389;51.578;5.456;2023-06-22T11:19:36;101513.38;;;20.62;100.00
58622;BME280;44389;51.578;5.456;2023-06-22T11:22:02;101530.84;;;20.52;100.00
58622;BME280;44389;51.578;5.456;2023-06-22T11:24:27;101525.63;;;20.39;100.00
58622;BME280;44389;51.578;5.456;2023-06-22T11:26:52;101523.00;;;20.30;100.00
58622;BME280;44389;51.578;5.456;2023-06-22T11:29:18;101513.41;;;20.31;100.00
58622;BME280;44389;51.578;5.456;2023-06-22T11:31:43;101507.28;;;20.26;100.00
58622;BME280;44389;51.578;5.456;2023-06-22T11:34:08;101516.03;;;20.17;100.00
58622;BME280;44389;51.578;5.456;2023-06-22T11:36:34;101524.75;;;20.08;100.00
58622;BME280;44389;51.578;5.456;2023-06-22T11:39:00;101531.72;;;19.95;100.00
58622;BME280;44389;51.578;5.456;2023-06-22T11:41:26;101533.41;;;19.87;100.00
58622;BME280;44389;51.578;5.456;2023-06-22T11:43:51;101522.88;;;19.71;100.00
58622;BME280;44389;51.578;5.456;2023-06-22T11:46:17;101516.78;;;19.63;100.00
58622;BME280;44389;51.578;5.456;2023-06-22T11:48:42;101512.38;;;19.56;100.00
58622;BME280;44389;51.578;5.456;2023-06-22T11:51:08;101514.13;;;19.51;100.00
58622;BME280;44389;51.578;5.456;2023-06-22T11:53:34;101524.56;;;19.45;100.00
58622;BME280;44389;51.578;5.456;2023-06-22T11:56:00;101512.31;;;19.28;100.00
58622;BME280;44389;51.578;5.456;2023-06-22T11:58:26;101508.81;;;19.20;100.00
58622;BME280;44389;51.578;5.456;2023-06-22T12:00:51;101493.06;;;19.07;100.00
58622;BME280;44389;51.578;5.456;2023-06-22T12:03:17;101482.53;;;18.95;100.00
58622;BME280;44389;51.578;5.456;2023-06-22T12:05:43;101470.25;;;18.83;100.00
58622;BME280;44389;51.578;5.456;2023-06-22T12:08:08;101475.44;;;18.71;100.00
58622;BME280;44389;51.578;5.456;2023-06-22T12:10:34;101472.78;;;18.66;100.00
58622;BME280;44389;51.578;5.456;2023-06-22T12:12:59;101464.91;;;18.60;100.00
58622;BME280;44389;51.578;5.456;2023-06-22T12:15:26;101464.00;;;18.55;100.00
58622;BME280;44389;51.578;5.456;2023-06-22T12:17:51;101450.94;;;18.55;100.00
58622;BME280;44389;51.578;5.456;2023-06-22T12:20:17;101446.56;;;18.49;100.00
58622;BME280;44389;51.578;5.456;2023-06-22T12:22:43;101439.59;;;18.47;100.00
58622;BME280;44389;51.578;5.456;2023-06-22T12:25:08;101436.94;;;18.37;100.00
58622;BME280;44389;51.578;5.456;2023-06-22T12:27:35;101429.97;;;18.36;100.00
58622;BME280;44389;51.578;5.456;2023-06-22T12:30:00;101431.63;;;18.25;100.00
58622;BME280;44389;51.578;5.456;2023-06-22T12:32:25;101435.94;;;18.21;100.00
58622;BME280;44389;51.578;5.456;2023-06-22T12:34:51;101434.13;;;18.11;100.00
58622;BME280;44389;51.578;5.456;2023-06-22T12:37:16;101437.50;;;18.02;100.00
58622;BME280;44389;51.578;5.456;2023-06-22T12:39:42;101445.31;;;17.96;100.00
58622;BME280;44389;51.578;5.456;2023-06-22T12:42:07;101442.66;;;17.93;100.00
58622;BME280;44389;51.578;5.456;2023-06-22T12:44:34;101434.72;;;17.84;100.00
58622;BME280;44389;51.578;5.456;2023-06-22T12:47:00;101440.72;;;17.76;100.00